sensor_id;sensor_type;location;lat;lon;timestamp;temperature;humidity
15967;DHT22;15175;48.154;11.534;2023-12-04T00:01:07;-4.70;99.90
15967;DHT22;15175;48.154;11.534;2023-12-04T00:07:10;-4.80;99.90
15967;DHT22;15175;48.154;11.534;2023-12-04T00:13:14;-4.70;99.90
15967;DHT22;15175;48.154;11.534;2023-12-04T00:19:16;-4.70;99.90
15967;DHT22;15175;48.154;11.534;2023-12-04T00:25:18;-4.70;99.90
15967;DHT22;15175;48.154;11.534;2023-12-04T00:31:21;-4.70;99.90
15967;DHT22;15175;48.154;11.534;2023-12-04T00:37:24;-4.70;99.90
15967;DHT22;15175;48.154;11.534;2023-12-04T00:43:26;-4.80;99.90
15967;DHT22;15175;48.154;11.534;2023-12-04T00:49:29;-4.80;99.90
15967;DHT22;15175;48.154;11.534;2023-12-04T00:55:31;-4.80;99.90
15967;DHT22;15175;48.154;11.534;2023-12-04T01:01:34;-4.90;99.90
15967;DHT22;15175;48.154;11.534;2023-12-04T01:07:38;-4.90;99.90
15967;DHT22;15175;48.154;11.534;2023-12-04T01:13:40;-4.90;99.90
15967;DHT22;15175;48.154;11.534;2023-12-04T01:19:42;-4.90;99.90
15967;DHT22;15175;48.154;11.534;2023-12-04T01:25:46;-4.90;99.90
15967;DHT22;15175;48.154;11.534;2023-12-04T01:31:48;-4.90;99.90
15967;DHT22;15175;48.154;11.534;2023-12-04T01:37:50;-4.90;99.90
15967;DHT22;15175;48.154;11.534;2023-12-04T01:43:54;-4.80;99.90
15967;DHT22;15175;48.154;11.534;2023-12-04T01:49:56;-4.80;99.90
15967;DHT22;15175;48.154;11.534;2023-12-04T01:55:58;-4.90;99.90
15967;DHT22;15175;48.154;11.534;2023-12-04T02:02:02;-4.90;99.90
15967;DHT22;15175;48.154;11.534;2023-12-04T02:08:05;-4.80;99.90
15967;DHT22;15175;48.154;11.534;2023-12-04T02:14:08;-4.80;99.90
15967;DHT22;15175;48.154;11.534;2023-12-04T02:20:14;-4.80;99.90
15967;DHT22;15175;48.154;11.534;2023-12-04T02:26:25;-4.80;99.90
15967;DHT22;15175;48.154;11.534;2023-12-04T02:32:32;-4.80;99.90
15967;DHT22;15175;48.154;11.534;2023-12-04T02:38:35;-4.90;99.90
15967;DHT22;15175;48.154;11.534;2023-12-04T02:44:39;-5.00;99.90
15967;DHT22;15175;48.154;11.534;2023-12-04T02:50:41;-4.90;99.90
15967;DHT22;15175;48.154;11.534;2023-12-04T02:56:43;-4.90;99.90
15967;DHT22;15175;48.154;11.534;2023-12-04T03:02:47;-4.90;99.90
15967;DHT22;15175;48.154;11.534;2023-12-04T03:08:49;-4.90;99.90
15967;DHT22;15175;48.154;11.534;2023-12-04T03:14:51;-4.90;99.90
15967;DHT22;15175;48.154;11.534;2023-12-04T03:20:55;-4.90;99.90
15967;DHT22;15175;48.154;11.534;2023-12-04T03:26:57;-5.00;99.90
15967;DHT22;15175;48.154;11.534;2023-12-04T03:32:59;-5.10;99.90
15967;DHT22;15175;48.154;11.534;2023-12-04T03:39:03;-5.10;99.90
15967;DHT22;15175;48.154;11.534;2023-12-04T03:45:06;-5.20;99.90
15967;DHT22;15175;48.154;11.534;2023-12-04T03:51:08;-5.20;99.90
15967;DHT22;15175;48.154;11.534;2023-12-04T03:57:12;-5.40;99.90
15967;DHT22;15175;48.154;11.534;2023-12-04T04:03:14;-5.50;99.90
15967;DHT22;15175;48.154;11.534;2023-12-04T04:09:16;-5.60;99.90
15967;DHT22;15175;48.154;11.534;2023-12-04T04:15:22;-5.70;99.90
15967;DHT22;15175;48.154;11.534;2023-12-04T04:21:24;-5.70;99.90
15967;DHT22;15175;48.154;11.534;2023-12-04T04:27:26;-5.80;99.90
15967;DHT22;15175;48.154;11.534;2023-12-04T04:33:30;-5.70;99.90
15967;DHT22;15175;48.154;11.534;2023-12-04T04:39:32;-5.80;99.90
15967;DHT22;15175;48.154;11.534;2023-12-04T04:45:34;-5.90;99.90
15967;DHT22;15175;48.154;11.534;2023-12-04T04:51:38;-6.00;99.90
15967;DHT22;15175;48.154;11.534;2023-12-04T04:57:40;-6.00;99.90
15967;DHT22;15175;48.154;11.534;2023-12-04T05:03:42;-6.10;99.90
15967;DHT22;15175;48.154;11.534;2023-12-04T05:09:46;-6.10;99.90
15967;DHT22;15175;48.154;11.534;2023-12-04T05:15:48;-6.10;99.90
15967;DHT22;15175;48.154;11.534;2023-12-04T05:21:50;-6.10;99.90
15967;DHT22;15175;48.154;11.534;2023-12-04T05:27:54;-6.10;99.90
15967;DHT22;15175;48.154;11.534;2023-12-04T05:33:56;-6.20;99.90
15967;DHT22;15175;48.154;11.534;2023-12-04T05:39:58;-6.10;99.90
15967;DHT22;15175;48.154;11.534;2023-12-04T05:46:02;-6.10;99.90
15967;DHT22;15175;48.154;11.534;2023-12-04T05:52:04;-6.00;99.90
15967;DHT22;15175;48.154;11.534;2023-12-04T05:58:06;-5.90;99.90
15967;DHT22;15175;48.154;11.534;2023-12-04T06:04:10;-5.80;99.90
15967;DHT22;15175;48.154;11.534;2023-12-04T06:10:12;-5.70;99.90
15967;DHT22;15175;48.154;11.534;2023-12-04T06:16:14;-5.60;99.90
15967;DHT22;15175;48.154;11.534;2023-12-04T06:22:19;-5.50;99.90
15967;DHT22;15175;48.154;11.534;2023-12-04T06:28:22;-5.50;99.90
15967;DHT22;15175;48.154;11.534;2023-12-04T06:34:25;-5.40;99.90
15967;DHT22;15175;48.154;11.534;2023-12-04T06:40:30;-5.30;99.90
15967;DHT22;15175;48.154;11.534;2023-12-04T06:46:35;-5.20;99.90
15967;DHT22;15175;48.154;11.534;2023-12-04T06:52:38;-5.20;99.90
15967;DHT22;15175;48.154;11.534;2023-12-04T06:58:42;-5.20;99.90
15967;DHT22;15175;48.154;11.534;2023-12-04T07:04:44;-5.20;99.90
15967;DHT22;15175;48.154;11.534;2023-12-04T07:10:47;-5.20;99.90
15967;DHT22;15175;48.154;11.534;2023-12-04T07:16:51;-5.20;99.90
15967;DHT22;15175;48.154;11.534;2023-12-04T07:22:53;-5.10;99.90
15967;DHT22;15175;48.154;11.534;2023-12-04T07:28:55;-5.00;99.90
15967;DHT22;15175;48.154;11.534;2023-12-04T07:34:59;-4.90;99.90
15967;DHT22;15175;48.154;11.534;2023-12-04T07:41:01;-4.90;99.90
15967;DHT22;15175;48.154;11.534;2023-12-04T07:47:04;-4.80;99.90
15967;DHT22;15175;48.154;11.534;2023-12-04T07:53:08;-4.80;99.90
15967;DHT22;15175;48.154;11.534;2023-12-04T07:59:12;-4.70;99.90
15967;DHT22;15175;48.154;11.534;2023-12-04T08:05:15;-4.70;99.90
15967;DHT22;15175;48.154;11.534;2023-12-04T08:11:19;-4.60;99.90
15967;DHT22;15175;48.154;11.534;2023-12-04T08:17:21;-4.50;99.90
15967;DHT22;15175;48.154;11.534;2023-12-04T08:23:23;-4.40;99.90
15967;DHT22;15175;48.154;11.534;2023-12-04T08:29:27;-4.40;99.90
15967;DHT22;15175;48.154;11.534;2023-12-04T08:35:29;-4.20;99.90
15967;DHT22;15175;48.154;11.534;2023-12-04T08:41:32;-4.10;99.90
15967;DHT22;15175;48.154;11.534;2023-12-04T08:47:35;-4.10;99.90
15967;DHT22;15175;48.154;11.534;2023-12-04T08:53:37;-4.00;99.90
15967;DHT22;15175;48.154;11.534;2023-12-04T08:59:40;-3.90;99.90
15967;DHT22;15175;48.154;11.534;2023-12-04T09:05:43;-3.90;99.90
15967;DHT22;15175;48.154;11.534;2023-12-04T09:11:45;-3.90;99.90
15967;DHT22;15175;48.154;11.534;2023-12-04T09:17:48;-3.90;99.90
15967;DHT22;15175;48.154;11.534;2023-12-04T09:23:52;-3.90;99.90
15967;DHT22;15175;48.154;11.534;2023-12-04T09:29:54;-3.80;99.90
15967;DHT22;15175;48.154;11.534;2023-12-04T09:35:56;-3.80;99.90
15967;DHT22;15175;48.154;11.534;2023-12-04T09:42:01;-3.80;99.90
15967;DHT22;15175;48.154;11.534;2023-12-04T09:48:05;-3.80;99.90
15967;DHT22;15175;48.154;11.534;2023-12-04T09:54:10;-3.70;99.90
15967;DHT22;15175;48.154;11.534;2023-12-04T10:00:15;-3.80;99.90
15967;DHT22;15175;48.154;11.534;2023-12-04T10:06:19;-3.90;99.90
15967;DHT22;15175;48.154;11.534;2023-12-04T10:12:21;-4.10;99.90
15967;DHT22;15175;48.154;11.534;2023-12-04T10:18:26;-4.10;99.90
15967;DHT22;15175;48.154;11.534;2023-12-04T10:24:31;-4.20;99.90
15967;DHT22;15175;48.154;11.534;2023-12-04T10:30:34;-4.10;99.90
15967;DHT22;15175;48.154;11.534;2023-12-04T10:36:37;-3.90;99.90
15967;DHT22;15175;48.154;11.534;2023-12-04T10:42:40;-3.60;99.90
15967;DHT22;15175;48.154;11.534;2023-12-04T10:48:45;-3.40;99.90
15967;DHT22;15175;48.154;11.534;2023-12-04T10:54:48;-3.30;99.90
15967;DHT22;15175;48.154;11.534;2023-12-04T11:00:51;-3.10;99.90
15967;DHT22;15175;48.154;11.534;2023-12-04T11:06:59;-3.00;99.90
15967;DHT22;15175;48.154;11.534;2023-12-04T11:13:12;-2.90;99.90
15967;DHT22;15175;48.154;11.534;2023-12-04T11:19:20;-3.10;99.90
15967;DHT22;15175;48.154;11.534;2023-12-04T11:25:23;-2.90;99.90
15967;DHT22;15175;48.154;11.534;2023-12-04T11:31:28;-2.80;99.90
15967;DHT22;15175;48.154;11.534;2023-12-04T11:37:31;-2.70;99.90
15967;DHT22;15175;48.154;11.534;2023-12-04T11:43:34;-2.70;99.90
15967;DHT22;15175;48.154;11.534;2023-12-04T11:49:38;-2.50;99.90
15967;DHT22;15175;48.154;11.534;2023-12-04T11:55:41;-2.30;99.90
15967;DHT22;15175;48.154;11.534;2023-12-04T12:01:43;-2.20;99.90
15967;DHT22;15175;48.154;11.534;2023-12-04T12:07:47;-2.10;99.90
15967;DHT22;15175;48.154;11.534;2023-12-04T12:13:50;-2.00;99.90
15967;DHT22;15175;48.154;11.534;2023-12-04T12:19:52;-2.00;99.90
15967;DHT22;15175;48.154;11.534;2023-12-04T12:25:59;-1.90;99.90
15967;DHT22;15175;48.154;11.534;2023-12-04T12:32:01;-2.00;99.90
15967;DHT22;15175;48.154;11.534;2023-12-04T12:38:04;-2.10;99.90
15967;DHT22;15175;48.154;11.534;2023-12-04T12:44:08;-2.00;99.90
15967;DHT22;15175;48.154;11.534;2023-12-04T12:50:13;-1.90;99.90
15967;DHT22;15175;48.154;11.534;2023-12-04T12:56:15;-1.80;99.90
15967;DHT22;15175;48.154;11.534;2023-12-04T13:02:20;-1.80;99.90
15967;DHT22;15175;48.154;11.534;2023-12-04T13:08:22;-1.60;99.90
15967;DHT22;15175;48.154;11.534;2023-12-04T13:14:24;-1.40;99.90
15967;DHT22;15175;48.154;11.534;2023-12-04T13:20:28;-1.30;99.90
15967;DHT22;15175;48.154;11.534;2023-12-04T13:26:30;-1.20;99.90
15967;DHT22;15175;48.154;11.534;2023-12-04T13:32:33;-1.10;99.90
15967;DHT22;15175;48.154;11.534;2023-12-04T13:38:36;-1.20;99.90
15967;DHT22;15175;48.154;11.534;2023-12-04T13:44:39;-1.20;99.90
15967;DHT22;15175;48.154;11.534;2023-12-04T13:50:42;-1.20;99.90
15967;DHT22;15175;48.154;11.534;2023-12-04T13:56:45;-1.30;99.90
15967;DHT22;15175;48.154;11.534;2023-12-04T14:02:54;-1.20;99.90
15967;DHT22;15175;48.154;11.534;2023-12-04T14:09:04;-1.20;99.90
15967;DHT22;15175;48.154;11.534;2023-12-04T14:15:12;-1.20;99.90
15967;DHT22;15175;48.154;11.534;2023-12-04T14:21:15;-1.20;99.90
15967;DHT22;15175;48.154;11.534;2023-12-04T14:27:17;-1.20;99.90
15967;DHT22;15175;48.154;11.534;2023-12-04T14:33:21;-1.20;99.90
15967;DHT22;15175;48.154;11.534;2023-12-04T14:39:24;-1.30;99.90
15967;DHT22;15175;48.154;11.534;2023-12-04T14:45:26;-1.50;99.90
15967;DHT22;15175;48.154;11.534;2023-12-04T14:51:30;-1.70;99.90
15967;DHT22;15175;48.154;11.534;2023-12-04T14:57:32;-1.80;99.90
15967;DHT22;15175;48.154;11.534;2023-12-04T15:03:58;-1.90;99.90
15967;DHT22;15175;48.154;11.534;2023-12-04T15:10:27;-2.00;99.90
15967;DHT22;15175;48.154;11.534;2023-12-04T15:16:53;-2.00;99.90
15967;DHT22;15175;48.154;11.534;2023-12-04T15:23:02;-2.10;99.90
15967;DHT22;15175;48.154;11.534;2023-12-04T15:29:06;-2.20;99.90
15967;DHT22;15175;48.154;11.534;2023-12-04T15:35:09;-2.30;99.90
15967;DHT22;15175;48.154;11.534;2023-12-04T15:41:11;-2.30;99.90
15967;DHT22;15175;48.154;11.534;2023-12-04T15:47:14;-2.40;99.90
15967;DHT22;15175;48.154;11.534;2023-12-04T15:53:17;-2.30;99.90
15967;DHT22;15175;48.154;11.534;2023-12-04T15:59:19;-2.40;99.90
15967;DHT22;15175;48.154;11.534;2023-12-04T16:05:22;-2.40;99.90
15967;DHT22;15175;48.154;11.534;2023-12-04T16:11:25;-2.50;99.90
15967;DHT22;15175;48.154;11.534;2023-12-04T16:17:27;-2.40;99.90
15967;DHT22;15175;48.154;11.534;2023-12-04T16:23:31;-2.40;99.90
15967;DHT22;15175;48.154;11.534;2023-12-04T16:29:33;-2.40;99.90
15967;DHT22;15175;48.154;11.534;2023-12-04T16:35:35;-2.50;99.90
15967;DHT22;15175;48.154;11.534;2023-12-04T16:41:39;-2.40;99.90
15967;DHT22;15175;48.154;11.534;2023-12-04T16:47:41;-2.50;99.90
15967;DHT22;15175;48.154;11.534;2023-12-04T16:53:43;-2.50;99.90
15967;DHT22;15175;48.154;11.534;2023-12-04T16:59:47;-2.60;99.90
15967;DHT22;15175;48.154;11.534;2023-12-04T17:05:49;-2.60;99.90
15967;DHT22;15175;48.154;11.534;2023-12-04T17:11:52;-2.60;99.90
15967;DHT22;15175;48.154;11.534;2023-12-04T17:17:55;-2.60;99.90
15967;DHT22;15175;48.154;11.534;2023-12-04T17:23:58;-2.50;99.90
15967;DHT22;15175;48.154;11.534;2023-12-04T17:30:00;-2.50;99.90
15967;DHT22;15175;48.154;11.534;2023-12-04T17:42:37;-2.50;99.90
15967;DHT22;15175;48.154;11.534;2023-12-04T17:48:39;-2.40;99.90
15967;DHT22;15175;48.154;11.534;2023-12-04T17:54:42;-2.30;99.90
15967;DHT22;15175;48.154;11.534;2023-12-04T18:00:46;-2.30;99.90
15967;DHT22;15175;48.154;11.534;2023-12-04T18:06:48;-2.40;99.90
15967;DHT22;15175;48.154;11.534;2023-12-04T18:12:50;-2.40;99.90
15967;DHT22;15175;48.154;11.534;2023-12-04T18:18:54;-2.30;99.90
15967;DHT22;15175;48.154;11.534;2023-12-04T18:24:56;-2.20;99.90
15967;DHT22;15175;48.154;11.534;2023-12-04T18:30:59;-2.20;99.90
15967;DHT22;15175;48.154;11.534;2023-12-04T18:37:07;-2.10;99.90
15967;DHT22;15175;48.154;11.534;2023-12-04T18:43:13;-2.00;99.90
15967;DHT22;15175;48.154;11.534;2023-12-04T18:49:16;-1.90;99.90
15967;DHT22;15175;48.154;11.534;2023-12-04T18:55:20;-1.90;99.90
15967;DHT22;15175;48.154;11.534;2023-12-04T19:01:22;-1.80;99.90
15967;DHT22;15175;48.154;11.534;2023-12-04T19:07:25;-1.70;99.90
15967;DHT22;15175;48.154;11.534;2023-12-04T19:13:28;-1.60;99.90
15967;DHT22;15175;48.154;11.534;2023-12-04T19:19:31;-1.50;99.90
15967;DHT22;15175;48.154;11.534;2023-12-04T19:25:35;-1.40;99.90
15967;DHT22;15175;48.154;11.534;2023-12-04T19:31:41;-1.30;99.90
15967;DHT22;15175;48.154;11.534;2023-12-04T19:37:43;-1.30;99.90
15967;DHT22;15175;48.154;11.534;2023-12-04T19:43:45;-1.20;99.90
15967;DHT22;15175;48.154;11.534;2023-12-04T19:49:51;-1.10;99.90
15967;DHT22;15175;48.154;11.534;2023-12-04T19:55:54;-1.10;99.90
15967;DHT22;15175;48.154;11.534;2023-12-04T20:01:56;-1.00;99.90
15967;DHT22;15175;48.154;11.534;2023-12-04T20:08:00;-1.00;99.90
15967;DHT22;15175;48.154;11.534;2023-12-04T20:14:02;-1.00;99.90
15967;DHT22;15175;48.154;11.534;2023-12-04T20:20:06;-0.90;99.90
15967;DHT22;15175;48.154;11.534;2023-12-04T20:26:11;-0.90;99.90
15967;DHT22;15175;48.154;11.534;2023-12-04T20:32:13;-1.00;99.90
15967;DHT22;15175;48.154;11.534;2023-12-04T20:38:15;-1.00;99.90
15967;DHT22;15175;48.154;11.534;2023-12-04T20:44:19;-1.00;99.90
15967;DHT22;15175;48.154;11.534;2023-12-04T20:50:21;-0.90;99.90
15967;DHT22;15175;48.154;11.534;2023-12-04T20:56:23;-0.90;99.90
15967;DHT22;15175;48.154;11.534;2023-12-04T21:02:27;-0.90;99.90
15967;DHT22;15175;48.154;11.534;2023-12-04T21:08:29;-0.90;99.90
15967;DHT22;15175;48.154;11.534;2023-12-04T21:14:31;-0.90;99.90
15967;DHT22;15175;48.154;11.534;2023-12-04T21:20:35;-0.90;99.90
15967;DHT22;15175;48.154;11.534;2023-12-04T21:26:37;-0.90;99.90
15967;DHT22;15175;48.154;11.534;2023-12-04T21:32:39;-0.90;99.90
15967;DHT22;15175;48.154;11.534;2023-12-04T21:38:43;-0.80;99.90
15967;DHT22;15175;48.154;11.534;2023-12-04T21:44:45;-0.90;99.90
15967;DHT22;15175;48.154;11.534;2023-12-04T21:50:48;-0.90;99.90
15967;DHT22;15175;48.154;11.534;2023-12-04T21:56:51;-1.00;99.90
15967;DHT22;15175;48.154;11.534;2023-12-04T22:02:54;-1.00;99.90
15967;DHT22;15175;48.154;11.534;2023-12-04T22:08:56;-1.10;99.90
15967;DHT22;15175;48.154;11.534;2023-12-04T22:14:59;-1.10;99.90
15967;DHT22;15175;48.154;11.534;2023-12-04T22:21:02;-1.10;99.90
15967;DHT22;15175;48.154;11.534;2023-12-04T22:27:04;-1.00;99.90
15967;DHT22;15175;48.154;11.534;2023-12-04T22:33:08;-0.90;99.90
15967;DHT22;15175;48.154;11.534;2023-12-04T22:39:11;-0.80;99.90
15967;DHT22;15175;48.154;11.534;2023-12-04T22:45:14;-0.70;99.90
15967;DHT22;15175;48.154;11.534;2023-12-04T22:51:19;-0.60;99.90
15967;DHT22;15175;48.154;11.534;2023-12-04T22:57:21;-0.50;99.90
15967;DHT22;15175;48.154;11.534;2023-12-04T23:03:23;-0.50;99.90
15967;DHT22;15175;48.154;11.534;2023-12-04T23:09:27;-0.30;99.90
15967;DHT22;15175;48.154;11.534;2023-12-04T23:15:29;-0.30;99.90
15967;DHT22;15175;48.154;11.534;2023-12-04T23:21:31;-0.30;99.90
15967;DHT22;15175;48.154;11.534;2023-12-04T23:27:35;-0.20;99.90
15967;DHT22;15175;48.154;11.534;2023-12-04T23:33:37;-0.20;99.90
15967;DHT22;15175;48.154;11.534;2023-12-04T23:39:39;-0.20;99.90
15967;DHT22;15175;48.154;11.534;2023-12-04T23:45:43;-0.10;99.90
15967;DHT22;15175;48.154;11.534;2023-12-04T23:51:45;-0.10;99.90
15967;DHT22;15175;48.154;11.534;2023-12-04T23:57:47;0.00;99.90
